sensor_id;sensor_type;location;lat;lon;timestamp;pressure;altitude;pressure_sealevel;temperature;humidity
18500;BME280;9379;52.134;11.576;2023-04-04T00:02:12;102439.34;;;3.88;76.49
18500;BME280;9379;52.134;11.576;2023-04-04T00:04:39;102441.78;;;4.22;75.63
18500;BME280;9379;52.134;11.576;2023-04-04T00:07:06;102440.28;;;4.42;73.23
18500;BME280;9379;52.134;11.576;2023-04-04T00:09:32;102437.81;;;4.62;71.81
18500;BME280;9379;52.134;11.576;2023-04-04T00:12:00;102432.97;;;4.76;70.57
18500;BME280;9379;52.134;11.576;2023-04-04T00:14:28;102435.16;;;4.88;72.94
18500;BME280;9379;52.134;11.576;2023-04-04T00:16:55;102443.50;;;4.76;74.25
18500;BME280;9379;52.134;11.576;2023-04-04T00:19:22;102437.03;;;4.33;73.51
18500;BME280;9379;52.134;11.576;2023-04-04T00:21:49;102437.47;;;4.20;75.16
18500;BME280;9379;52.134;11.576;2023-04-04T00:24:15;102442.44;;;4.01;74.88
18500;BME280;9379;52.134;11.576;2023-04-04T00:26:42;102437.88;;;4.34;75.12
18500;BME280;9379;52.134;11.576;2023-04-04T00:29:10;102433.66;;;3.74;74.52
18500;BME280;9379;52.134;11.576;2023-04-04T00:31:37;102439.13;;;3.96;76.81
18500;BME280;9379;52.134;11.576;2023-04-04T00:34:04;102433.88;;;3.66;76.36
18500;BME280;9379;52.134;11.576;2023-04-04T00:36:31;102434.63;;;3.71;77.29
18500;BME280;9379;52.134;11.576;2023-04-04T00:38:58;102430.25;;;3.98;75.37
18500;BME280;9379;52.134;11.576;2023-04-04T00:41:24;102432.16;;;3.65;76.50
18500;BME280;9379;52.134;11.576;2023-04-04T00:43:51;102425.84;;;3.99;76.38
18500;BME280;9379;52.134;11.576;2023-04-04T00:46:20;102429.25;;;4.02;76.18
18500;BME280;9379;52.134;11.576;2023-04-04T00:48:48;102430.19;;;4.54;74.55
18500;BME280;9379;52.134;11.576;2023-04-04T00:51:15;102428.72;;;4.46;73.68
18500;BME280;9379;52.134;11.576;2023-04-04T00:53:43;102435.16;;;3.81;75.90
18500;BME280;9379;52.134;11.576;2023-04-04T00:56:12;102434.03;;;4.18;77.56
18500;BME280;9379;52.134;11.576;2023-04-04T00:58:39;102427.47;;;4.31;77.31
18500;BME280;9379;52.134;11.576;2023-04-04T01:01:06;102424.16;;;4.24;76.24
18500;BME280;9379;52.134;11.576;2023-04-04T01:03:36;102424.09;;;3.99;77.34
18500;BME280;9379;52.134;11.576;2023-04-04T01:06:05;102422.25;;;4.29;75.01
18500;BME280;9379;52.134;11.576;2023-04-04T01:08:33;102424.50;;;4.14;76.75
18500;BME280;9379;52.134;11.576;2023-04-04T01:11:01;102412.72;;;3.69;77.93
18500;BME280;9379;52.134;11.576;2023-04-04T01:13:28;102430.59;;;3.60;79.11
18500;BME280;9379;52.134;11.576;2023-04-04T01:15:56;102431.66;;;3.82;77.89
18500;BME280;9379;52.134;11.576;2023-04-04T01:18:24;102409.72;;;3.81;76.92
18500;BME280;9379;52.134;11.576;2023-04-04T01:20:56;102427.25;;;4.10;78.11
18500;BME280;9379;52.134;11.576;2023-04-04T01:23:33;102424.53;;;3.56;78.92
18500;BME280;9379;52.134;11.576;2023-04-04T01:26:03;102416.91;;;3.76;78.87
18500;BME280;9379;52.134;11.576;2023-04-04T01:28:31;102419.69;;;4.00;78.37
18500;BME280;9379;52.134;11.576;2023-04-04T01:30:58;102422.31;;;4.00;77.78
18500;BME280;9379;52.134;11.576;2023-04-04T01:33:28;102422.78;;;4.13;77.75
18500;BME280;9379;52.134;11.576;2023-04-04T01:36:03;102407.22;;;4.33;77.14
18500;BME280;9379;52.134;11.576;2023-04-04T01:38:39;102418.72;;;4.02;77.60
18500;BME280;9379;52.134;11.576;2023-04-04T01:41:09;102413.47;;;3.74;78.80
18500;BME280;9379;52.134;11.576;2023-04-04T01:43:37;102403.81;;;3.75;79.82
18500;BME280;9379;52.134;11.576;2023-04-04T01:46:04;102412.13;;;3.89;78.71
18500;BME280;9379;52.134;11.576;2023-04-04T01:48:31;102407.69;;;3.91;79.47
18500;BME280;9379;52.134;11.576;2023-04-04T01:50:59;102400.47;;;3.98;79.86
18500;BME280;9379;52.134;11.576;2023-04-04T01:53:26;102411.91;;;3.97;80.11
18500;BME280;9379;52.134;11.576;2023-04-04T01:55:53;102401.69;;;4.14;78.96
18500;BME280;9379;52.134;11.576;2023-04-04T01:58:21;102409.63;;;4.13;78.42
18500;BME280;9379;52.134;11.576;2023-04-04T02:00:48;102400.88;;;4.12;79.90
18500;BME280;9379;52.134;11.576;2023-04-04T02:03:15;102389.88;;;4.26;80.33
18500;BME280;9379;52.134;11.576;2023-04-04T02:05:41;102400.50;;;4.76;76.81
18500;BME280;9379;52.134;11.576;2023-04-04T02:08:08;102389.91;;;4.52;77.27
18500;BME280;9379;52.134;11.576;2023-04-04T02:10:36;102405.03;;;4.19;79.80
18500;BME280;9379;52.134;11.576;2023-04-04T02:13:03;102393.44;;;3.98;80.84
18500;BME280;9379;52.134;11.576;2023-04-04T02:15:32;102396.97;;;3.97;80.89
18500;BME280;9379;52.134;11.576;2023-04-04T02:17:59;102386.84;;;3.85;82.09
18500;BME280;9379;52.134;11.576;2023-04-04T02:20:26;102395.03;;;4.02;82.08
18500;BME280;9379;52.134;11.576;2023-04-04T02:22:54;102393.66;;;4.19;81.12
18500;BME280;9379;52.134;11.576;2023-04-04T02:25:22;102392.56;;;4.24;81.22
18500;BME280;9379;52.134;11.576;2023-04-04T02:27:49;102386.19;;;4.58;80.50
18500;BME280;9379;52.134;11.576;2023-04-04T02:30:16;102388.16;;;4.51;80.72
18500;BME280;9379;52.134;11.576;2023-04-04T02:32:45;102382.94;;;4.50;80.41
18500;BME280;9379;52.134;11.576;2023-04-04T02:35:12;102371.47;;;4.26;81.46
18500;BME280;9379;52.134;11.576;2023-04-04T02:37:38;102384.69;;;3.98;81.84
18500;BME280;9379;52.134;11.576;2023-04-04T02:40:07;102377.59;;;4.26;81.67
18500;BME280;9379;52.134;11.576;2023-04-04T02:42:33;102370.84;;;4.44;80.65
18500;BME280;9379;52.134;11.576;2023-04-04T02:45:00;102369.28;;;4.38;80.69
18500;BME280;9379;52.134;11.576;2023-04-04T02:47:27;102371.41;;;4.27;81.95
18500;BME280;9379;52.134;11.576;2023-04-04T02:49:55;102359.09;;;4.29;80.96
18500;BME280;9379;52.134;11.576;2023-04-04T02:52:22;102357.09;;;4.36;80.02
18500;BME280;9379;52.134;11.576;2023-04-04T02:54:49;102359.16;;;4.78;78.56
18500;BME280;9379;52.134;11.576;2023-04-04T02:57:16;102362.78;;;4.49;79.13
18500;BME280;9379;52.134;11.576;2023-04-04T02:59:42;102358.44;;;4.73;78.29
18500;BME280;9379;52.134;11.576;2023-04-04T03:02:09;102354.69;;;4.80;78.52
18500;BME280;9379;52.134;11.576;2023-04-04T03:04:36;102356.13;;;4.38;80.59
18500;BME280;9379;52.134;11.576;2023-04-04T03:07:04;102348.41;;;4.59;79.44
18500;BME280;9379;52.134;11.576;2023-04-04T03:09:31;102356.88;;;4.16;80.71
18500;BME280;9379;52.134;11.576;2023-04-04T03:11:58;102354.88;;;3.69;81.23
18500;BME280;9379;52.134;11.576;2023-04-04T03:14:25;102355.28;;;3.85;81.23
18500;BME280;9379;52.134;11.576;2023-04-04T03:16:55;102349.72;;;3.94;81.21
18500;BME280;9379;52.134;11.576;2023-04-04T03:19:23;102343.63;;;3.94;80.70
18500;BME280;9379;52.134;11.576;2023-04-04T03:21:50;102331.50;;;3.88;80.95
18500;BME280;9379;52.134;11.576;2023-04-04T03:24:18;102325.84;;;3.74;80.65
18500;BME280;9379;52.134;11.576;2023-04-04T03:26:45;102334.28;;;3.56;81.19
18500;BME280;9379;52.134;11.576;2023-04-04T03:29:11;102335.31;;;3.51;81.58
18500;BME280;9379;52.134;11.576;2023-04-04T03:31:38;102305.94;;;3.65;82.46
18500;BME280;9379;52.134;11.576;2023-04-04T03:34:05;102330.91;;;3.52;81.74
18500;BME280;9379;52.134;11.576;2023-04-04T03:36:32;102329.94;;;3.55;81.99
18500;BME280;9379;52.134;11.576;2023-04-04T03:38:59;102329.19;;;3.21;82.49
18500;BME280;9379;52.134;11.576;2023-04-04T03:41:27;102329.31;;;3.74;82.12
18500;BME280;9379;52.134;11.576;2023-04-04T03:43:54;102330.00;;;3.53;81.04
18500;BME280;9379;52.134;11.576;2023-04-04T03:46:21;102316.75;;;3.28;82.03
18500;BME280;9379;52.134;11.576;2023-04-04T03:48:48;102316.16;;;3.18;82.60
18500;BME280;9379;52.134;11.576;2023-04-04T03:51:22;102324.47;;;3.33;82.20
18500;BME280;9379;52.134;11.576;2023-04-04T03:53:48;102303.25;;;3.11;82.12
18500;BME280;9379;52.134;11.576;2023-04-04T03:56:15;102312.94;;;3.38;82.68
18500;BME280;9379;52.134;11.576;2023-04-04T03:58:43;102314.75;;;3.07;82.46
18500;BME280;9379;52.134;11.576;2023-04-04T04:01:10;102318.63;;;3.25;81.86
18500;BME280;9379;52.134;11.576;2023-04-04T04:03:37;102315.19;;;3.21;82.35
18500;BME280;9379;52.134;11.576;2023-04-04T04:06:04;102318.63;;;3.23;82.79
18500;BME280;9379;52.134;11.576;2023-04-04T04:08:31;102321.16;;;3.28;84.03
18500;BME280;9379;52.134;11.576;2023-04-04T04:11:02;102310.47;;;3.04;82.91
18500;BME280;9379;52.134;11.576;2023-04-04T04:13:29;102310.72;;;2.95;82.52
18500;BME280;9379;52.134;11.576;2023-04-04T04:15:57;102306.84;;;3.08;83.28
18500;BME280;9379;52.134;11.576;2023-04-04T04:18:24;102308.00;;;2.98;83.63
18500;BME280;9379;52.134;11.576;2023-04-04T04:20:55;102310.91;;;3.18;83.02
18500;BME280;9379;52.134;11.576;2023-04-04T04:23:22;102314.06;;;3.30;81.70
18500;BME280;9379;52.134;11.576;2023-04-04T04:25:49;102317.22;;;3.13;82.27
18500;BME280;9379;52.134;11.576;2023-04-04T04:28:16;102294.44;;;3.12;82.93
18500;BME280;9379;52.134;11.576;2023-04-04T04:30:43;102307.75;;;3.37;81.56
18500;BME280;9379;52.134;11.576;2023-04-04T04:33:11;102314.22;;;3.53;80.73
18500;BME280;9379;52.134;11.576;2023-04-04T04:35:39;102310.63;;;3.56;80.41
18500;BME280;9379;52.134;11.576;2023-04-04T04:38:06;102319.94;;;3.66;80.24
18500;BME280;9379;52.134;11.576;2023-04-04T04:40:33;102319.16;;;3.36;81.89
18500;BME280;9379;52.134;11.576;2023-04-04T04:42:59;102289.19;;;3.13;81.81
18500;BME280;9379;52.134;11.576;2023-04-04T04:45:26;102305.44;;;3.80;80.02
18500;BME280;9379;52.134;11.576;2023-04-04T04:47:53;102307.59;;;3.68;80.86
18500;BME280;9379;52.134;11.576;2023-04-04T04:50:21;102314.06;;;3.30;81.56
18500;BME280;9379;52.134;11.576;2023-04-04T04:52:49;102312.13;;;3.64;80.13
18500;BME280;9379;52.134;11.576;2023-04-04T04:55:16;102313.41;;;3.51;80.84
18500;BME280;9379;52.134;11.576;2023-04-04T04:57:45;102318.69;;;3.21;81.66
18500;BME280;9379;52.134;11.576;2023-04-04T05:00:13;102320.78;;;3.40;82.54
18500;BME280;9379;52.134;11.576;2023-04-04T05:02:41;102324.84;;;3.50;82.20
18500;BME280;9379;52.134;11.576;2023-04-04T05:05:08;102325.22;;;3.92;79.53
18500;BME280;9379;52.134;11.576;2023-04-04T05:07:36;102320.59;;;4.25;78.84
18500;BME280;9379;52.134;11.576;2023-04-04T05:10:03;102319.00;;;4.21;77.44
18500;BME280;9379;52.134;11.576;2023-04-04T05:12:30;102320.06;;;3.89;79.59
18500;BME280;9379;52.134;11.576;2023-04-04T05:14:57;102331.56;;;3.87;80.14
18500;BME280;9379;52.134;11.576;2023-04-04T05:17:24;102320.75;;;3.68;80.14
18500;BME280;9379;52.134;11.576;2023-04-04T05:19:50;102323.50;;;3.65;81.84
18500;BME280;9379;52.134;11.576;2023-04-04T05:22:17;102329.63;;;3.37;82.42
18500;BME280;9379;52.134;11.576;2023-04-04T05:24:45;102333.31;;;3.58;81.46
18500;BME280;9379;52.134;11.576;2023-04-04T05:27:12;102340.59;;;3.78;80.85
18500;BME280;9379;52.134;11.576;2023-04-04T05:29:39;102349.09;;;3.86;80.71
18500;BME280;9379;52.134;11.576;2023-04-04T05:32:05;102345.53;;;3.61;81.12
18500;BME280;9379;52.134;11.576;2023-04-04T05:34:32;102326.47;;;3.82;81.58
18500;BME280;9379;52.134;11.576;2023-04-04T05:36:59;102345.47;;;3.90;80.82
18500;BME280;9379;52.134;11.576;2023-04-04T05:39:26;102345.41;;;3.92;79.26
18500;BME280;9379;52.134;11.576;2023-04-04T05:41:54;102340.56;;;4.06;79.82
18500;BME280;9379;52.134;11.576;2023-04-04T05:44:21;102349.22;;;4.09;80.20
18500;BME280;9379;52.134;11.576;2023-04-04T05:46:48;102348.50;;;4.56;78.11
18500;BME280;9379;52.134;11.576;2023-04-04T05:49:14;102350.47;;;4.49;78.40
18500;BME280;9379;52.134;11.576;2023-04-04T05:51:41;102357.09;;;4.09;79.51
18500;BME280;9379;52.134;11.576;2023-04-04T05:54:08;102345.84;;;4.06;79.28
18500;BME280;9379;52.134;11.576;2023-04-04T05:56:35;102352.66;;;4.12;78.76
18500;BME280;9379;52.134;11.576;2023-04-04T05:59:03;102351.94;;;4.33;78.20
18500;BME280;9379;52.134;11.576;2023-04-04T06:01:29;102354.50;;;4.34;76.88
18500;BME280;9379;52.134;11.576;2023-04-04T06:03:56;102367.13;;;4.50;78.45
18500;BME280;9379;52.134;11.576;2023-04-04T06:06:24;102362.16;;;4.67;78.29
18500;BME280;9379;52.134;11.576;2023-04-04T06:08:52;102367.75;;;4.58;77.55
18500;BME280;9379;52.134;11.576;2023-04-04T06:11:18;102358.03;;;7.00;70.88
18500;BME280;9379;52.134;11.576;2023-04-04T06:13:46;102359.09;;;8.08;66.46
18500;BME280;9379;52.134;11.576;2023-04-04T06:16:14;102365.56;;;7.66;67.37
18500;BME280;9379;52.134;11.576;2023-04-04T06:18:41;102368.22;;;6.89;69.48
18500;BME280;9379;52.134;11.576;2023-04-04T06:21:07;102358.00;;;6.21;70.77
18500;BME280;9379;52.134;11.576;2023-04-04T06:23:34;102365.91;;;7.58;68.40
18500;BME280;9379;52.134;11.576;2023-04-04T06:26:02;102344.34;;;9.53;63.91
18500;BME280;9379;52.134;11.576;2023-04-04T06:28:29;102350.31;;;9.88;60.96
18500;BME280;9379;52.134;11.576;2023-04-04T06:30:55;102366.56;;;9.03;63.50
18500;BME280;9379;52.134;11.576;2023-04-04T06:33:23;102363.91;;;9.03;63.39
18500;BME280;9379;52.134;11.576;2023-04-04T06:35:50;102372.59;;;9.70;62.26
18500;BME280;9379;52.134;11.576;2023-04-04T06:38:17;102369.31;;;10.12;60.90
18500;BME280;9379;52.134;11.576;2023-04-04T06:40:44;102350.22;;;8.78;62.97
18500;BME280;9379;52.134;11.576;2023-04-04T06:43:11;102371.03;;;7.80;66.47
18500;BME280;9379;52.134;11.576;2023-04-04T06:45:38;102369.31;;;8.85;65.04
18500;BME280;9379;52.134;11.576;2023-04-04T06:48:05;102366.19;;;7.71;67.58
18500;BME280;9379;52.134;11.576;2023-04-04T06:50:33;102369.25;;;7.62;68.65
18500;BME280;9379;52.134;11.576;2023-04-04T06:53:00;102370.78;;;6.52;72.56
18500;BME280;9379;52.134;11.576;2023-04-04T06:55:27;102375.91;;;7.14;70.96
18500;BME280;9379;52.134;11.576;2023-04-04T06:57:54;102352.81;;;6.99;69.96
18500;BME280;9379;52.134;11.576;2023-04-04T07:00:21;102373.66;;;6.66;71.29
18500;BME280;9379;52.134;11.576;2023-04-04T07:02:48;102372.88;;;6.64;70.77
18500;BME280;9379;52.134;11.576;2023-04-04T07:05:15;102370.41;;;7.00;71.14
18500;BME280;9379;52.134;11.576;2023-04-04T07:07:44;102370.91;;;6.06;73.30
18500;BME280;9379;52.134;11.576;2023-04-04T07:10:11;102368.13;;;6.09;73.84
18500;BME280;9379;52.134;11.576;2023-04-04T07:12:38;102365.53;;;6.70;72.42
18500;BME280;9379;52.134;11.576;2023-04-04T07:15:05;102364.47;;;7.14;70.01
18500;BME280;9379;52.134;11.576;2023-04-04T07:17:36;102367.34;;;7.47;68.85
18500;BME280;9379;52.134;11.576;2023-04-04T07:20:06;102355.09;;;6.88;70.61
18500;BME280;9379;52.134;11.576;2023-04-04T07:22:36;102358.03;;;6.61;72.45
18500;BME280;9379;52.134;11.576;2023-04-04T07:25:05;102355.16;;;7.05;72.31
18500;BME280;9379;52.134;11.576;2023-04-04T07:27:32;102347.91;;;7.29;70.17
18500;BME280;9379;52.134;11.576;2023-04-04T07:29:59;102324.03;;;8.20;65.49
18500;BME280;9379;52.134;11.576;2023-04-04T07:32:25;102343.91;;;7.39;67.43
18500;BME280;9379;52.134;11.576;2023-04-04T07:34:53;102347.16;;;8.86;61.94
18500;BME280;9379;52.134;11.576;2023-04-04T07:37:20;102348.06;;;7.45;65.10
18500;BME280;9379;52.134;11.576;2023-04-04T07:39:47;102342.53;;;5.90;69.44
18500;BME280;9379;52.134;11.576;2023-04-04T07:42:17;102353.38;;;6.87;68.16
18500;BME280;9379;52.134;11.576;2023-04-04T07:44:47;102351.84;;;6.81;69.00
18500;BME280;9379;52.134;11.576;2023-04-04T07:47:14;102353.69;;;7.37;67.36
18500;BME280;9379;52.134;11.576;2023-04-04T07:49:41;102355.41;;;7.38;66.29
18500;BME280;9379;52.134;11.576;2023-04-04T07:52:08;102353.06;;;6.74;67.72
18500;BME280;9379;52.134;11.576;2023-04-04T07:54:35;102352.59;;;6.44;68.75
18500;BME280;9379;52.134;11.576;2023-04-04T07:57:02;102361.25;;;6.27;67.50
18500;BME280;9379;52.134;11.576;2023-04-04T07:59:31;102347.88;;;6.91;66.82
18500;BME280;9379;52.134;11.576;2023-04-04T08:01:58;102344.75;;;6.42;68.27
18500;BME280;9379;52.134;11.576;2023-04-04T08:04:24;102346.59;;;7.00;66.99
18500;BME280;9379;52.134;11.576;2023-04-04T08:06:51;102323.31;;;7.08;65.67
18500;BME280;9379;52.134;11.576;2023-04-04T08:09:18;102342.25;;;6.39;67.60
18500;BME280;9379;52.134;11.576;2023-04-04T08:11:45;102334.53;;;5.93;68.30
18500;BME280;9379;52.134;11.576;2023-04-04T08:14:11;102344.38;;;6.91;67.30
18500;BME280;9379;52.134;11.576;2023-04-04T08:16:40;102344.72;;;6.83;67.98
18500;BME280;9379;52.134;11.576;2023-04-04T08:19:06;102333.09;;;7.25;68.17
18500;BME280;9379;52.134;11.576;2023-04-04T08:21:34;102332.97;;;7.28;66.60
18500;BME280;9379;52.134;11.576;2023-04-04T08:24:01;102335.34;;;6.76;66.12
18500;BME280;9379;52.134;11.576;2023-04-04T08:26:27;102343.00;;;6.21;67.80
18500;BME280;9379;52.134;11.576;2023-04-04T08:28:55;102336.81;;;6.42;67.74
18500;BME280;9379;52.134;11.576;2023-04-04T08:31:21;102332.03;;;7.10;65.76
18500;BME280;9379;52.134;11.576;2023-04-04T08:33:50;102328.50;;;6.91;63.98
18500;BME280;9379;52.134;11.576;2023-04-04T08:36:17;102339.56;;;6.60;65.70
18500;BME280;9379;52.134;11.576;2023-04-04T08:38:44;102342.47;;;7.13;64.62
18500;BME280;9379;52.134;11.576;2023-04-04T08:41:11;102342.34;;;7.54;65.30
18500;BME280;9379;52.134;11.576;2023-04-04T08:43:40;102336.56;;;7.63;64.16
18500;BME280;9379;52.134;11.576;2023-04-04T08:46:10;102342.19;;;7.38;64.84
18500;BME280;9379;52.134;11.576;2023-04-04T08:48:38;102344.25;;;7.13;64.30
18500;BME280;9379;52.134;11.576;2023-04-04T08:51:06;102346.28;;;7.81;62.42
18500;BME280;9379;52.134;11.576;2023-04-04T08:53:36;102346.38;;;7.61;62.13
18500;BME280;9379;52.134;11.576;2023-04-04T08:56:04;102343.06;;;8.11;62.75
18500;BME280;9379;52.134;11.576;2023-04-04T08:58:31;102325.22;;;8.14;61.39
18500;BME280;9379;52.134;11.576;2023-04-04T09:00:58;102333.31;;;7.39;64.62
18500;BME280;9379;52.134;11.576;2023-04-04T09:03:26;102321.31;;;7.32;65.79
18500;BME280;9379;52.134;11.576;2023-04-04T09:05:55;102320.31;;;7.35;62.69
18500;BME280;9379;52.134;11.576;2023-04-04T09:08:24;102334.66;;;7.29;59.88
18500;BME280;9379;52.134;11.576;2023-04-04T09:10:51;102321.88;;;7.01;59.75
18500;BME280;9379;52.134;11.576;2023-04-04T09:13:18;102335.81;;;7.61;61.48
18500;BME280;9379;52.134;11.576;2023-04-04T09:15:47;102328.09;;;7.56;61.96
18500;BME280;9379;52.134;11.576;2023-04-04T09:18:15;102327.09;;;7.02;62.29
18500;BME280;9379;52.134;11.576;2023-04-04T09:20:44;102336.09;;;7.55;60.72
18500;BME280;9379;52.134;11.576;2023-04-04T09:23:12;102338.09;;;7.12;62.92
18500;BME280;9379;52.134;11.576;2023-04-04T09:25:46;102333.63;;;7.33;61.01
18500;BME280;9379;52.134;11.576;2023-04-04T09:28:14;102331.44;;;7.60;59.71
18500;BME280;9379;52.134;11.576;2023-04-04T09:30:41;102327.69;;;7.83;58.23
18500;BME280;9379;52.134;11.576;2023-04-04T09:33:11;102333.47;;;7.91;57.45
18500;BME280;9379;52.134;11.576;2023-04-04T09:35:39;102341.31;;;7.56;59.21
18500;BME280;9379;52.134;11.576;2023-04-04T09:38:09;102330.25;;;7.84;58.89
18500;BME280;9379;52.134;11.576;2023-04-04T09:40:36;102328.72;;;7.05;60.36
18500;BME280;9379;52.134;11.576;2023-04-04T09:43:06;102333.38;;;7.38;59.49
18500;BME280;9379;52.134;11.576;2023-04-04T09:45:34;102333.00;;;6.89;58.65
18500;BME280;9379;52.134;11.576;2023-04-04T09:48:02;102323.09;;;7.13;60.79
18500;BME280;9379;52.134;11.576;2023-04-04T09:50:28;102332.09;;;7.27;58.52
18500;BME280;9379;52.134;11.576;2023-04-04T09:52:59;102322.81;;;7.74;56.69
18500;BME280;9379;52.134;11.576;2023-04-04T09:55:32;102327.25;;;7.56;56.13
18500;BME280;9379;52.134;11.576;2023-04-04T09:58:12;102315.28;;;7.66;56.89
18500;BME280;9379;52.134;11.576;2023-04-04T10:00:40;102316.81;;;8.06;56.55
18500;BME280;9379;52.134;11.576;2023-04-04T10:03:10;102314.84;;;8.10;57.87
18500;BME280;9379;52.134;11.576;2023-04-04T10:05:37;102300.09;;;8.40;55.60
18500;BME280;9379;52.134;11.576;2023-04-04T10:08:13;102316.66;;;8.44;55.53
18500;BME280;9379;52.134;11.576;2023-04-04T10:10:46;102317.09;;;8.36;55.03
18500;BME280;9379;52.134;11.576;2023-04-04T10:13:21;102299.31;;;7.68;55.11
18500;BME280;9379;52.134;11.576;2023-04-04T10:15:48;102311.91;;;8.51;54.13
18500;BME280;9379;52.134;11.576;2023-04-04T10:18:15;102306.16;;;8.42;53.87
18500;BME280;9379;52.134;11.576;2023-04-04T10:20:43;102310.50;;;8.61;55.11
18500;BME280;9379;52.134;11.576;2023-04-04T10:23:10;102298.47;;;9.04;55.94
18500;BME280;9379;52.134;11.576;2023-04-04T10:25:37;102309.34;;;9.31;53.84
18500;BME280;9379;52.134;11.576;2023-04-04T10:28:04;102306.84;;;9.12;53.35
18500;BME280;9379;52.134;11.576;2023-04-04T10:30:36;102306.75;;;9.77;52.74
18500;BME280;9379;52.134;11.576;2023-04-04T10:33:06;102310.53;;;9.57;52.67
18500;BME280;9379;52.134;11.576;2023-04-04T10:35:37;102286.25;;;9.79;53.46
18500;BME280;9379;52.134;11.576;2023-04-04T10:38:06;102307.72;;;10.50;51.66
18500;BME280;9379;52.134;11.576;2023-04-04T10:40:34;102299.66;;;10.07;51.49
18500;BME280;9379;52.134;11.576;2023-04-04T10:43:03;102306.13;;;9.87;50.00
18500;BME280;9379;52.134;11.576;2023-04-04T10:45:33;102304.44;;;9.71;50.74
18500;BME280;9379;52.134;11.576;2023-04-04T10:48:03;102300.84;;;9.09;50.96
18500;BME280;9379;52.134;11.576;2023-04-04T10:50:29;102296.78;;;9.80;51.98
18500;BME280;9379;52.134;11.576;2023-04-04T10:52:59;102288.38;;;10.48;51.45
18500;BME280;9379;52.134;11.576;2023-04-04T10:55:28;102283.91;;;10.63;50.12
18500;BME280;9379;52.134;11.576;2023-04-04T10:57:56;102283.25;;;10.59;47.39
18500;BME280;9379;52.134;11.576;2023-04-04T11:00:23;102281.91;;;10.08;51.03
18500;BME280;9379;52.134;11.576;2023-04-04T11:02:54;102274.56;;;9.97;54.69
18500;BME280;9379;52.134;11.576;2023-04-04T11:05:23;102279.78;;;9.37;51.20
18500;BME280;9379;52.134;11.576;2023-04-04T11:07:55;102277.06;;;9.54;50.94
18500;BME280;9379;52.134;11.576;2023-04-04T11:10:23;102271.47;;;10.49;50.48
18500;BME280;9379;52.134;11.576;2023-04-04T11:12:54;102279.41;;;11.20;50.29
18500;BME280;9379;52.134;11.576;2023-04-04T11:15:22;102262.59;;;11.05;50.51
18500;BME280;9379;52.134;11.576;2023-04-04T11:17:57;102270.06;;;11.54;50.95
18500;BME280;9379;52.134;11.576;2023-04-04T11:20:32;102261.13;;;11.55;49.03
18500;BME280;9379;52.134;11.576;2023-04-04T11:23:04;102261.72;;;11.19;49.85
18500;BME280;9379;52.134;11.576;2023-04-04T11:25:39;102266.59;;;10.41;49.76
18500;BME280;9379;52.134;11.576;2023-04-04T11:28:12;102262.63;;;10.34;51.33
18500;BME280;9379;52.134;11.576;2023-04-04T11:30:43;102261.31;;;9.51;52.82
18500;BME280;9379;52.134;11.576;2023-04-04T11:33:27;102247.59;;;9.89;51.78
18500;BME280;9379;52.134;11.576;2023-04-04T11:36:03;102256.38;;;10.35;50.37
18500;BME280;9379;52.134;11.576;2023-04-04T11:38:30;102246.69;;;10.63;50.63
18500;BME280;9379;52.134;11.576;2023-04-04T11:40:58;102227.75;;;11.37;50.85
18500;BME280;9379;52.134;11.576;2023-04-04T11:43:25;102228.44;;;10.71;46.64
18500;BME280;9379;52.134;11.576;2023-04-04T11:45:53;102218.84;;;10.82;48.19
18500;BME280;9379;52.134;11.576;2023-04-04T11:48:21;102226.69;;;10.98;46.59
18500;BME280;9379;52.134;11.576;2023-04-04T11:50:51;102220.41;;;10.99;46.25
18500;BME280;9379;52.134;11.576;2023-04-04T11:53:18;102220.84;;;10.22;50.38
18500;BME280;9379;52.134;11.576;2023-04-04T11:55:47;102197.69;;;10.38;49.90
18500;BME280;9379;52.134;11.576;2023-04-04T11:58:16;102206.28;;;11.53;49.87
18500;BME280;9379;52.134;11.576;2023-04-04T12:00:43;102207.03;;;11.28;46.36
18500;BME280;9379;52.134;11.576;2023-04-04T12:03:11;102188.84;;;10.09;47.88
18500;BME280;9379;52.134;11.576;2023-04-04T12:05:38;102203.38;;;10.75;47.93
18500;BME280;9379;52.134;11.576;2023-04-04T12:08:09;102194.81;;;11.11;47.49
18500;BME280;9379;52.134;11.576;2023-04-04T12:10:38;102181.88;;;11.46;45.96
18500;BME280;9379;52.134;11.576;2023-04-04T12:13:06;102192.69;;;11.30;47.23
18500;BME280;9379;52.134;11.576;2023-04-04T12:15:33;102196.94;;;11.60;45.31
18500;BME280;9379;52.134;11.576;2023-04-04T12:18:01;102182.78;;;11.05;46.39
18500;BME280;9379;52.134;11.576;2023-04-04T12:20:28;102186.94;;;11.09;47.42
18500;BME280;9379;52.134;11.576;2023-04-04T12:22:56;102178.47;;;11.57;47.25
18500;BME280;9379;52.134;11.576;2023-04-04T12:25:25;102173.59;;;10.97;46.82
18500;BME280;9379;52.134;11.576;2023-04-04T12:27:53;102165.09;;;11.71;47.44
18500;BME280;9379;52.134;11.576;2023-04-04T12:30:20;102171.78;;;10.97;45.44
18500;BME280;9379;52.134;11.576;2023-04-04T12:32:48;102174.44;;;10.97;46.11
18500;BME280;9379;52.134;11.576;2023-04-04T12:35:16;102162.34;;;10.79;47.91
18500;BME280;9379;52.134;11.576;2023-04-04T12:37:59;102171.22;;;10.37;47.79
18500;BME280;9379;52.134;11.576;2023-04-04T12:40:35;102153.06;;;10.99;48.05
18500;BME280;9379;52.134;11.576;2023-04-04T12:43:04;102153.66;;;11.56;47.25
18500;BME280;9379;52.134;11.576;2023-04-04T12:45:32;102150.38;;;10.99;49.34
18500;BME280;9379;52.134;11.576;2023-04-04T12:48:08;102148.19;;;11.45;47.31
18500;BME280;9379;52.134;11.576;2023-04-04T12:50:48;102142.16;;;11.56;49.42
18500;BME280;9379;52.134;11.576;2023-04-04T12:53:17;102129.34;;;11.35;46.63
18500;BME280;9379;52.134;11.576;2023-04-04T12:55:47;102122.06;;;11.12;46.88
18500;BME280;9379;52.134;11.576;2023-04-04T12:58:15;102126.00;;;10.65;46.39
18500;BME280;9379;52.134;11.576;2023-04-04T13:00:43;102124.63;;;10.72;47.56
18500;BME280;9379;52.134;11.576;2023-04-04T13:03:12;102124.69;;;10.01;47.88